• Join FlightAware (Why Join?)
  • Login
  • US Flag 
06:51PM EDT


 

Airport Tracker/Info


-or-


 

Live Flight TrackerFlight Track Log ✈ SAA265 ✈ 23-Apr-2012 ✈ EDDM / MUC - FAJS

Flight Track Log - Related Links

Times and Time Zones

All times are in EDT time to prevent confusion due to time zone crossing. See the SAA265 flight status page for this flight to view local times or setup timezone preferences in your user account.

Time Position Orientation Groundspeed Altitude Reporting Facility
EDT Latitude Longitude Course Direction KTS MPH feet Rate Location/Type
04:14PM 48.3227 11.7988 182° South  Level Estimated
04:15PM 48.1982 11.8495 182° South  Level Estimated
04:16PM 48.0737 11.8999 183° South  Level Estimated
04:17PM 47.9493 11.9501 183° South  Level Estimated
04:18PM 47.8247 12.0001 184° South  Level Estimated
04:19PM 47.7002 12.0498 184° South  Level Estimated
04:20PM 47.5757 12.0993 185° South  Level Estimated
04:21PM 47.4511 12.1486 186° South  Level Estimated
04:22PM 47.3265 12.1976 187° South  Level Estimated
04:23PM 47.2019 12.2464 187° South  Level Estimated
04:24PM 47.0772 12.2949 188° South  Level Estimated
04:25PM 46.9526 12.3433 189° South  Level Estimated
04:26PM 46.8279 12.3914 190° South  Level Estimated
04:27PM 46.7032 12.4393 191° South  Level Estimated
04:28PM 46.5785 12.4869 192° South  Level Estimated
04:29PM 46.4537 12.5344 194° South  Level Estimated
04:30PM 46.3290 12.5816 195° South  Level Estimated
04:31PM 46.2042 12.6286 197° South  Level Estimated
04:32PM 46.0794 12.6754 198° South  Level Estimated
04:33PM 45.9546 12.7220 200° South  Level Estimated
04:34PM 45.8297 12.7684 202° Southwest  Level Estimated
04:35PM 45.7049 12.8146 204° Southwest  Level Estimated
04:36PM 45.5800 12.8605 206° Southwest  Level Estimated
04:37PM 45.4551 12.9063 209° Southwest  Level Estimated
04:38PM 45.3302 12.9518 212° Southwest  Level Estimated
04:39PM 45.2053 12.9972 215° Southwest  Level Estimated
04:40PM 45.0803 13.0424 218° Southwest  Level Estimated
04:41PM 44.9554 13.0873 222° Southwest  Level Estimated
04:42PM 44.8304 13.1321 226° Southwest  Level Estimated
04:43PM 44.7054 13.1767 230° Southwest  Level Estimated
04:44PM 44.5804 13.2211 235° Southwest  Level Estimated
04:45PM 44.4554 13.2653 240° Southwest  Level Estimated
04:46PM 44.3303 13.3092 245° Southwest  Level Estimated
04:47PM 44.2052 13.3531 251° West  Level Estimated
04:48PM 44.0802 13.3967 256° West  Level Estimated
04:49PM 43.9551 13.4402 262° West  Level Estimated
04:55PM 43.7547 11.6218 177° South 471 542 35,000  Level FlightAware ADS-B
05:02PM 42.8399 11.6838 164° South 486 559 35,000  Level FlightAware ADS-B
05:09PM 41.9458 12.0223 164° South  Level Estimated
05:10PM 41.8216 12.0686 165° South  Level Estimated
05:11PM 41.6973 12.1147 165° South  Level Estimated
05:12PM 41.5730 12.1606 165° South  Level Estimated
05:13PM 41.4487 12.2063 165° South  Level Estimated
05:14PM 41.3244 12.2519 165° South  Level Estimated
05:15PM 41.2000 12.2973 165° South  Level Estimated
05:16PM 41.0756 12.3425 165° South  Level Estimated
05:17PM 40.9513 12.3875 165° South  Level Estimated
05:18PM 40.8269 12.4324 165° South  Level Estimated
05:19PM 40.7024 12.4771 165° South  Level Estimated
05:20PM 40.5780 12.5216 165° South  Level Estimated
05:21PM 40.4535 12.5660 165° South  Level Estimated
05:22PM 40.3291 12.6102 165° South  Level Estimated
05:23PM 40.2046 12.6543 165° South  Level Estimated
05:24PM 40.0801 12.6981 165° South  Level Estimated
05:25PM 39.9556 12.7418 165° South  Level Estimated
05:26PM 39.8310 12.7854 165° South  Level Estimated
05:27PM 39.7065 12.8288 165° South  Level Estimated
05:28PM 39.5819 12.8721 165° South  Level Estimated
05:29PM 39.4573 12.9152 165° South  Level Estimated
05:30PM 39.3327 12.9581 165° South  Level Estimated
05:31PM 39.2081 13.0009 165° South  Level Estimated
05:32PM 39.0835 13.0435 165° South  Level Estimated
05:33PM 38.9589 13.0860 165° South  Level Estimated
05:34PM 38.8342 13.1284 165° South  Level Estimated
05:35PM 38.7095 13.1706 165° South  Level Estimated
05:36PM 38.5848 13.2126 165° South  Level Estimated
05:37PM 38.4601 13.2545 165° South  Level Estimated
05:38PM 38.3354 13.2962 165° South  Level Estimated
05:39PM 38.2107 13.3378 165° South  Level Estimated
05:40PM 38.0859 13.3793 165° South  Level Estimated
05:41PM 37.9612 13.4206 165° South  Level Estimated
05:42PM 37.8364 13.4618 165° South  Level Estimated
05:43PM 37.7116 13.5028 165° South  Level Estimated
05:44PM 37.5868 13.5438 165° South  Level Estimated
05:45PM 37.4620 13.5845 165° South  Level Estimated
05:46PM 37.3371 13.6252 166° South  Level Estimated
05:47PM 37.2123 13.6657 166° South  Level Estimated
05:48PM 37.0874 13.7060 166° South  Level Estimated
05:49PM 36.9626 13.7463 166° South  Level Estimated
05:50PM 36.8377 13.7864 166° South  Level Estimated
05:51PM 36.7128 13.8263 166° South  Level Estimated
05:52PM 36.5878 13.8662 166° South  Level Estimated
05:53PM 36.4629 13.9059 166° South  Level Estimated
05:54PM 36.3380 13.9454 166° South  Level Estimated
05:55PM 36.2130 13.9849 166° South  Level Estimated
05:56PM 36.0880 14.0242 166° South  Level Estimated
05:57PM 35.9631 14.0634 166° South  Level Estimated
05:58PM 35.8381 14.1025 166° South  Level Estimated
05:59PM 35.7131 14.1415 166° South  Level Estimated
06:00PM 35.5880 14.1803 166° South  Level Estimated
06:01PM 35.4630 14.2191 166° South  Level Estimated
06:02PM 35.3380 14.2577 166° South  Level Estimated
06:03PM 35.2129 14.2961 166° South  Level Estimated
06:04PM 35.0878 14.3345 166° South  Level Estimated
06:05PM 34.9627 14.3727 166° South  Level Estimated
06:06PM 34.8377 14.4108 166° South  Level Estimated
06:07PM 34.7126 14.4489 166° South  Level Estimated
06:08PM 34.5874 14.4867 166° South  Level Estimated
06:09PM 34.4623 14.5245 166° South  Level Estimated
06:10PM 34.3372 14.5622 166° South  Level Estimated
06:11PM 34.2120 14.5997 166° South  Level Estimated
06:12PM 34.0869 14.6372 166° South  Level Estimated
06:13PM 33.9617 14.6745 166° South  Level Estimated
06:14PM 33.8365 14.7117 166° South  Level Estimated
06:15PM 33.7113 14.7488 166° South  Level Estimated
06:16PM 33.5861 14.7859 166° South  Level Estimated
06:17PM 33.4609 14.8228 166° South  Level Estimated
06:18PM 33.3356 14.8596 166° South  Level Estimated
06:19PM 33.2104 14.8962 166° South  Level Estimated
06:20PM 33.0852 14.9328 166° South  Level Estimated
06:21PM 32.9599 14.9693 166° South  Level Estimated
06:22PM 32.8346 15.0057 166° South  Level Estimated
06:23PM 32.7093 15.0419 166° South  Level Estimated
06:24PM 32.5840 15.0781 166° South  Level Estimated
06:25PM 32.4588 15.1142 166° South  Level Estimated
06:26PM 32.3334 15.1502 166° South  Level Estimated
06:27PM 32.2081 15.1860 166° South  Level Estimated
06:28PM 32.0828 15.2218 166° South  Level Estimated
06:29PM 31.9575 15.2575 166° South  Level Estimated
06:30PM 31.8321 15.2930 166° South  Level Estimated
06:31PM 31.7067 15.3285 166° South  Level Estimated
06:32PM 31.5814 15.3639 166° South  Level Estimated
06:33PM 31.4560 15.3992 167° South  Level Estimated
06:34PM 31.3306 15.4344 167° South  Level Estimated
06:35PM 31.2052 15.4695 167° South  Level Estimated
06:36PM 31.0798 15.5045 167° South  Level Estimated
06:37PM 30.9544 15.5394 167° South  Level Estimated
06:38PM 30.8289 15.5742 167° South  Level Estimated
06:39PM 30.7035 15.6089 167° South  Level Estimated
06:40PM 30.5781 15.6436 167° South  Level Estimated
06:41PM 30.4526 15.6781 167° South  Level Estimated
06:42PM 30.3271 15.7126 167° South  Level Estimated
06:43PM 30.2016 15.7470 167° South  Level Estimated
06:44PM 30.0762 15.7813 167° South  Level Estimated
06:45PM 29.9507 15.8155 167° South  Level Estimated
06:46PM 29.8252 15.8496 167° South  Level Estimated
06:47PM 29.6996 15.8836 167° South  Level Estimated
06:48PM 29.5741 15.9176 167° South  Level Estimated
06:49PM 29.4486 15.9514 167° South  Level Estimated
06:50PM 29.3231 15.9852 167° South  Level Estimated
06:51PM 29.1975 16.0189 167° South  Level Estimated
06:52PM 29.0720 16.0525 167° South  Level Estimated
06:53PM 28.9464 16.0860 167° South  Level Estimated
06:54PM 28.8208 16.1195 167° South  Level Estimated
06:55PM 28.6952 16.1528 167° South  Level Estimated
06:56PM 28.5697 16.1861 167° South  Level Estimated
06:57PM 28.4441 16.2193 167° South  Level Estimated
06:58PM 28.3185 16.2525 167° South  Level Estimated
06:59PM 28.1929 16.2855 167° South  Level Estimated
07:00PM 28.0672 16.3185 167° South  Level Estimated
07:01PM 27.9416 16.3514 167° South  Level Estimated
07:02PM 27.8160 16.3842 167° South  Level Estimated
07:03PM 27.6903 16.4170 167° South  Level Estimated
07:04PM 27.5647 16.4496 167° South  Level Estimated
07:05PM 27.4390 16.4822 167° South  Level Estimated
07:06PM 27.3134 16.5147 167° South  Level Estimated
07:07PM 27.1877 16.5472 167° South  Level Estimated
07:08PM 27.0620 16.5795 167° South  Level Estimated
07:09PM 26.9363 16.6119 167° South  Level Estimated
07:10PM 26.8106 16.6441 167° South  Level Estimated
07:11PM 26.6849 16.6762 167° South  Level Estimated
07:12PM 26.5592 16.7083 167° South  Level Estimated
07:13PM 26.4335 16.7404 167° South  Level Estimated
07:14PM 26.3078 16.7723 167° South  Level Estimated
07:15PM 26.1820 16.8042 167° South  Level Estimated
07:16PM 26.0563 16.8360 167° South  Level Estimated
07:17PM 25.9305 16.8677 167° South  Level Estimated
07:18PM 25.8048 16.8994 167° South  Level Estimated
07:19PM 25.6790 16.9310 167° South  Level Estimated
07:20PM 25.5533 16.9625 167° South  Level Estimated
07:21PM 25.4275 16.9940 167° South  Level Estimated
07:22PM 25.3017 17.0254 167° South  Level Estimated
07:23PM 25.1759 17.0568 167° South  Level Estimated
07:24PM 25.0501 17.0881 167° South  Level Estimated
07:25PM 24.9243 17.1193 167° South  Level Estimated
07:26PM 24.7985 17.1504 167° South  Level Estimated
07:27PM 24.6727 17.1815 167° South  Level Estimated
07:28PM 24.5469 17.2125 167° South  Level Estimated
07:29PM 24.4211 17.2435 167° South  Level Estimated
07:30PM 24.2952 17.2744 167° South  Level Estimated
07:31PM 24.1694 17.3052 167° South  Level Estimated
07:32PM 24.0436 17.3360 167° South  Level Estimated
07:33PM 23.9177 17.3667 167° South  Level Estimated
07:34PM 23.7918 17.3974 167° South  Level Estimated
07:35PM 23.6660 17.4280 167° South  Level Estimated
07:36PM 23.5401 17.4585 167° South  Level Estimated
07:37PM 23.4142 17.4890 167° South  Level Estimated
07:38PM 23.2884 17.5194 167° South  Level Estimated
07:39PM 23.1625 17.5498 168° South  Level Estimated
07:40PM 23.0366 17.5801 168° South  Level Estimated
07:41PM 22.9107 17.6103 168° South  Level Estimated
07:42PM 22.7848 17.6406 168° South  Level Estimated
07:43PM 22.6589 17.6707 168° South  Level Estimated
07:44PM 22.5330 17.7008 168° South  Level Estimated
07:45PM 22.4071 17.7308 168° South  Level Estimated
07:46PM 22.2811 17.7608 168° South  Level Estimated
07:47PM 22.1552 17.7907 168° South  Level Estimated
07:48PM 22.0293 17.8206 168° South  Level Estimated
07:49PM 21.9033 17.8504 168° South  Level Estimated
07:50PM 21.7774 17.8802 168° South  Level Estimated
07:51PM 21.6514 17.9099 168° South  Level Estimated
07:52PM 21.5255 17.9395 168° South  Level Estimated
07:53PM 21.3995 17.9691 168° South  Level Estimated
07:54PM 21.2735 17.9987 168° South  Level Estimated
07:55PM 21.1476 18.0282 168° South  Level Estimated
07:56PM 21.0216 18.0577 168° South  Level Estimated
07:57PM 20.8956 18.0871 168° South  Level Estimated
07:58PM 20.7696 18.1164 168° South  Level Estimated
07:59PM 20.6436 18.1458 168° South  Level Estimated
08:00PM 20.5176 18.1750 168° South  Level Estimated
08:01PM 20.3916 18.2042 168° South  Level Estimated
08:02PM 20.2656 18.2334 168° South  Level Estimated
08:03PM 20.1396 18.2625 168° South  Level Estimated
08:04PM 20.0136 18.2916 168° South  Level Estimated
08:05PM 19.8876 18.3206 168° South  Level Estimated
08:06PM 19.7615 18.3496 168° South  Level Estimated
08:07PM 19.6355 18.3785 168° South  Level Estimated
08:08PM 19.5095 18.4074 168° South  Level Estimated
08:09PM 19.3834 18.4362 168° South  Level Estimated
08:10PM 19.2574 18.4650 168° South  Level Estimated
08:11PM 19.1313 18.4938 168° South  Level Estimated
08:12PM 19.0053 18.5225 168° South  Level Estimated
08:13PM 18.8792 18.5511 168° South  Level Estimated
08:14PM 18.7532 18.5798 168° South  Level Estimated
08:15PM 18.6271 18.6084 168° South  Level Estimated
08:16PM 18.5010 18.6369 168° South  Level Estimated
08:17PM 18.3750 18.6654 168° South  Level Estimated
08:18PM 18.2489 18.6938 168° South  Level Estimated
08:19PM 18.1228 18.7222 168° South  Level Estimated
08:20PM 17.9967 18.7506 168° South  Level Estimated
08:21PM 17.8706 18.7789 168° South  Level Estimated
08:22PM 17.7445 18.8072 168° South  Level Estimated
08:23PM 17.6184 18.8355 168° South  Level Estimated
08:24PM 17.4923 18.8637 168° South  Level Estimated
08:25PM 17.3662 18.8919 168° South  Level Estimated
08:26PM 17.2401 18.9200 168° South  Level Estimated
08:27PM 17.1140 18.9481 168° South  Level Estimated
08:28PM 16.9879 18.9761 168° South  Level Estimated
08:29PM 16.8617 19.0042 168° South  Level Estimated
08:30PM 16.7356 19.0321 168° South  Level Estimated
08:31PM 16.6095 19.0601 168° South  Level Estimated
08:32PM 16.4833 19.0880 168° South  Level Estimated
08:33PM 16.3572 19.1159 168° South  Level Estimated
08:34PM 16.2311 19.1437 168° South  Level Estimated
08:35PM 16.1049 19.1715 168° South  Level Estimated
08:36PM 15.9788 19.1992 168° South  Level Estimated
08:37PM 15.8526 19.2270 168° South  Level Estimated
08:38PM 15.7264 19.2547 168° South  Level Estimated
08:39PM 15.6003 19.2823 168° South  Level Estimated
08:40PM 15.4741 19.3100 168° South  Level Estimated
08:41PM 15.3480 19.3375 168° South  Level Estimated
08:42PM 15.2218 19.3651 168° South  Level Estimated
08:43PM 15.0956 19.3926 168° South  Level Estimated
08:44PM 14.9694 19.4201 168° South  Level Estimated
08:45PM 14.8433 19.4476 168° South  Level Estimated
08:46PM 14.7171 19.4750 168° South  Level Estimated
08:47PM 14.5909 19.5024 168° South  Level Estimated
08:48PM 14.4647 19.5298 168° South  Level Estimated
08:49PM 14.3385 19.5571 168° South  Level Estimated
08:50PM 14.2123 19.5844 168° South  Level Estimated
08:51PM 14.0861 19.6117 168° South  Level Estimated
08:52PM 13.9599 19.6389 168° South  Level Estimated
08:53PM 13.8337 19.6661 168° South  Level Estimated
08:54PM 13.7075 19.6933 168° South  Level Estimated
08:55PM 13.5813 19.7205 168° South  Level Estimated
08:56PM 13.4551 19.7476 168° South  Level Estimated
08:57PM 13.3288 19.7747 168° South  Level Estimated
08:58PM 13.2026 19.8018 168° South  Level Estimated
08:59PM 13.0764 19.8288 168° South  Level Estimated
09:00PM 12.9502 19.8558 168° South  Level Estimated
09:01PM 12.8239 19.8828 168° South  Level Estimated
09:02PM 12.6977 19.9098 168° South  Level Estimated
09:03PM 12.5715 19.9367 168° South  Level Estimated
09:04PM 12.4452 19.9636 168° South  Level Estimated
09:05PM 12.3190 19.9905 168° South  Level Estimated
09:06PM 12.1928 20.0174 168° South  Level Estimated
09:07PM 12.0665 20.0442 168° South  Level Estimated
09:08PM 11.9403 20.0710 168° South  Level Estimated
09:09PM 11.8140 20.0978 168° South  Level Estimated
09:10PM 11.6878 20.1245 168° South  Level Estimated
09:11PM 11.5615 20.1513 168° South  Level Estimated
09:12PM 11.4353 20.1780 168° South  Level Estimated
09:13PM 11.3090 20.2046 168° South  Level Estimated
09:14PM 11.1827 20.2313 168° South  Level Estimated
09:15PM 11.0565 20.2579 168° South  Level Estimated
09:16PM 10.9302 20.2845 168° South  Level Estimated
09:17PM 10.8040 20.3111 168° South  Level Estimated
09:18PM 10.6777 20.3377 168° South  Level Estimated
09:19PM 10.5514 20.3642 168° South  Level Estimated
09:20PM 10.4251 20.3908 168° South  Level Estimated
09:21PM 10.2989 20.4173 168° South  Level Estimated
09:22PM 10.1726 20.4437 168° South  Level Estimated
09:23PM 10.0463 20.4702 168° South  Level Estimated
09:24PM 9.9200 20.4966 168° South  Level Estimated
09:25PM 9.7937 20.5231 168° South  Level Estimated
09:26PM 9.6674 20.5495 168° South  Level Estimated
09:27PM 9.5411 20.5758 168° South  Level Estimated
09:28PM 9.4149 20.6022 168° South  Level Estimated
09:29PM 9.2886 20.6285 168° South  Level Estimated
09:30PM 9.1623 20.6549 168° South  Level Estimated
09:31PM 9.0360 20.6812 168° South  Level Estimated
09:32PM 8.9097 20.7074 168° South  Level Estimated
09:33PM 8.7834 20.7337 168° South  Level Estimated
09:34PM 8.6571 20.7600 168° South  Level Estimated
09:35PM 8.5308 20.7862 168° South  Level Estimated
09:36PM 8.4044 20.8124 168° South  Level Estimated
09:37PM 8.2781 20.8386 168° South  Level Estimated
09:38PM 8.1518 20.8648 168° South  Level Estimated
09:39PM 8.0255 20.8909 168° South  Level Estimated
09:40PM 7.8992 20.9171 168° South  Level Estimated
09:41PM 7.7729 20.9432 168° South  Level Estimated
09:42PM 7.6466 20.9693 168° South  Level Estimated
09:43PM 7.5202 20.9954 168° South  Level Estimated
09:44PM 7.3939 21.0215 168° South  Level Estimated
09:45PM 7.2676 21.0476 168° South  Level Estimated
09:46PM 7.1413 21.0736 168° South  Level Estimated
09:47PM 7.0150 21.0996 168° South  Level Estimated
09:48PM 6.8886 21.1257 168° South  Level Estimated
09:49PM 6.7623 21.1517 168° South  Level Estimated
09:50PM 6.6360 21.1777 168° South  Level Estimated
09:51PM 6.5096 21.2037 168° South  Level Estimated
09:52PM 6.3833 21.2296 168° South  Level Estimated
09:53PM 6.2570 21.2556 168° South  Level Estimated
09:54PM 6.1307 21.2815 168° South  Level Estimated
09:55PM 6.0043 21.3075 168° South  Level Estimated
09:56PM 5.8780 21.3334 168° South  Level Estimated
09:57PM 5.7516 21.3593 168° South  Level Estimated
09:58PM 5.6253 21.3852 168° South  Level Estimated
09:59PM 5.4990 21.4111 168° South  Level Estimated
10:00PM 5.3726 21.4370 168° South  Level Estimated
10:01PM 5.2463 21.4628 168° South  Level Estimated
10:02PM 5.1199 21.4887 168° South  Level Estimated
10:03PM 4.9936 21.5145 168° South  Level Estimated
10:04PM 4.8672 21.5404 168° South  Level Estimated
10:05PM 4.7409 21.5662 168° South  Level Estimated
10:06PM 4.6145 21.5920 168° South  Level Estimated
10:07PM 4.4882 21.6178 168° South  Level Estimated
10:08PM 4.3618 21.6436 168° South  Level Estimated
10:09PM 4.2355 21.6694 168° South  Level Estimated
10:10PM 4.1091 21.6952 168° South  Level Estimated
10:11PM 3.9828 21.7209 169° South  Level Estimated
10:12PM 3.8564 21.7467 169° South  Level Estimated
10:13PM 3.7301 21.7725 169° South  Level Estimated
10:14PM 3.6037 21.7982 169° South  Level Estimated
10:15PM 3.4774 21.8239 169° South  Level Estimated
10:16PM 3.3510 21.8497 169° South  Level Estimated
10:17PM 3.2247 21.8754 169° South  Level Estimated
10:18PM 3.0983 21.9011 169° South  Level Estimated
10:19PM 2.9719 21.9268 169° South  Level Estimated
10:20PM 2.8456 21.9526 169° South  Level Estimated
10:21PM 2.7192 21.9783 169° South  Level Estimated
10:22PM 2.5929 22.0040 169° South  Level Estimated
10:23PM 2.4665 22.0296 169° South  Level Estimated
10:24PM 2.3401 22.0553 169° South  Level Estimated
10:25PM 2.2138 22.0810 169° South  Level Estimated
10:26PM 2.0874 22.1067 169° South  Level Estimated
10:27PM 1.9611 22.1324 169° South  Level Estimated
10:28PM 1.8347 22.1581 169° South  Level Estimated
10:29PM 1.7083 22.1837 169° South  Level Estimated
10:30PM 1.5820 22.2094 169° South  Level Estimated
10:31PM 1.4556 22.2350 169° South  Level Estimated
10:32PM 1.3293 22.2607 169° South  Level Estimated
10:33PM 1.2029 22.2864 169° South  Level Estimated
10:34PM 1.0765 22.3120 169° South  Level Estimated
10:35PM 0.9502 22.3377 169° South  Level Estimated
10:36PM 0.8238 22.3633 169° South  Level Estimated
10:37PM 0.6975 22.3890 169° South  Level Estimated
10:38PM 0.5711 22.4146 169° South  Level Estimated
10:39PM 0.4447 22.4403 169° South  Level Estimated
10:40PM 0.3184 22.4659 169° South  Level Estimated
10:41PM 0.1920 22.4915 169° South  Level Estimated
10:42PM 0.0656 22.5172 169° South  Level Estimated
10:43PM -0.0607 22.5428 169° South  Level Estimated
10:44PM -0.1871 22.5685 169° South  Level Estimated
10:45PM -0.3135 22.5941 169° South  Level Estimated
10:46PM -0.4398 22.6197 169° South  Level Estimated
10:47PM -0.5662 22.6454 169° South  Level Estimated
10:48PM -0.6926 22.6710 169° South  Level Estimated
10:49PM -0.8189 22.6967 169° South  Level Estimated
10:50PM -0.9453 22.7223 169° South  Level Estimated
10:51PM -1.0716 22.7480 169° South  Level Estimated
10:52PM -1.1980 22.7736 169° South  Level Estimated
10:53PM -1.3244 22.7993 169° South  Level Estimated
10:54PM -1.4507 22.8250 169° South  Level Estimated
10:55PM -1.5771 22.8506 169° South  Level Estimated
10:56PM -1.7034 22.8763 169° South  Level Estimated
10:57PM -1.8298 22.9020 169° South  Level Estimated
10:58PM -1.9562 22.9276 169° South  Level Estimated
10:59PM -2.0825 22.9533 169° South  Level Estimated
11:00PM -2.2089 22.9790 169° South  Level Estimated
11:01PM -2.3352 23.0047 169° South  Level Estimated
11:02PM -2.4616 23.0304 169° South  Level Estimated
11:03PM -2.5880 23.0560 169° South  Level Estimated
11:04PM -2.7143 23.0818 169° South  Level Estimated
11:05PM -2.8407 23.1075 169° South  Level Estimated
11:06PM -2.9670 23.1332 169° South  Level Estimated
11:07PM -3.0934 23.1589 169° South  Level Estimated
11:08PM -3.2198 23.1846 169° South  Level Estimated
11:09PM -3.3461 23.2103 169° South  Level Estimated
11:10PM -3.4725 23.2361 169° South  Level Estimated
11:11PM -3.5988 23.2618 169° South  Level Estimated
11:12PM -3.7252 23.2875 169° South  Level Estimated
11:13PM -3.8515 23.3133 169° South  Level Estimated
11:14PM -3.9779 23.3391 169° South  Level Estimated
11:15PM -4.1042 23.3648 168° South  Level Estimated
11:16PM -4.2306 23.3906 168° South  Level Estimated
11:17PM -4.3569 23.4164 168° South  Level Estimated
11:18PM -4.4833 23.4422 168° South  Level Estimated
11:19PM -4.6096 23.4680 168° South  Level Estimated
11:20PM -4.7360 23.4938 168° South  Level Estimated
11:21PM -4.8623 23.5196 168° South  Level Estimated
11:22PM -4.9887 23.5455 168° South  Level Estimated
11:23PM -5.1150 23.5713 168° South  Level Estimated
11:24PM -5.2414 23.5972 168° South  Level Estimated
11:25PM -5.3677 23.6230 168° South  Level Estimated
11:26PM -5.4941 23.6489 168° South  Level Estimated
11:27PM -5.6204 23.6748 168° South  Level Estimated
11:28PM -5.7467 23.7007 168° South  Level Estimated
11:29PM -5.8731 23.7266 168° South  Level Estimated
11:30PM -5.9994 23.7525 168° South  Level Estimated
11:31PM -6.1258 23.7785 168° South  Level Estimated
11:32PM -6.2521 23.8044 168° South  Level Estimated
11:33PM -6.3784 23.8304 168° South  Level Estimated
11:34PM -6.5047 23.8563 168° South  Level Estimated
11:35PM -6.6311 23.8823 168° South  Level Estimated
11:36PM -6.7574 23.9083 168° South  Level Estimated
11:37PM -6.8837 23.9343 168° South  Level Estimated
11:38PM -7.0101 23.9604 168° South  Level Estimated
11:39PM -7.1364 23.9864 168° South  Level Estimated
11:40PM -7.2627 24.0124 168° South  Level Estimated
11:41PM -7.3890 24.0385 168° South  Level Estimated
11:42PM -7.5153 24.0646 168° South  Level Estimated
11:43PM -7.6417 24.0907 168° South  Level Estimated
11:44PM -7.7680 24.1168 168° South  Level Estimated
11:45PM -7.8943 24.1429 168° South  Level Estimated
11:46PM -8.0206 24.1691 168° South  Level Estimated
11:47PM -8.1469 24.1952 168° South  Level Estimated
11:48PM -8.2732 24.2214 168° South  Level Estimated
11:49PM -8.3995 24.2476 168° South  Level Estimated
11:50PM -8.5259 24.2738 168° South  Level Estimated
11:51PM -8.6522 24.3001 168° South  Level Estimated
11:52PM -8.7785 24.3263 168° South  Level Estimated
11:53PM -8.9048 24.3526 168° South  Level Estimated
11:54PM -9.0311 24.3788 168° South  Level Estimated
11:55PM -9.1574 24.4051 168° South  Level Estimated
11:56PM -9.2837 24.4315 168° South  Level Estimated
11:57PM -9.4100 24.4578 168° South  Level Estimated
11:58PM -9.5362 24.4842 168° South  Level Estimated
11:59PM -9.6625 24.5105 168° South  Level Estimated
12:00AM -9.7888 24.5369 168° South  Level Estimated
12:01AM -9.9151 24.5634 168° South  Level Estimated
12:02AM -10.0414 24.5898 168° South  Level Estimated
12:03AM -10.1677 24.6163 168° South  Level Estimated
12:04AM -10.2940 24.6427 168° South  Level Estimated
12:05AM -10.4202 24.6692 168° South  Level Estimated
12:06AM -10.5465 24.6958 168° South  Level Estimated
12:07AM -10.6728 24.7223 168° South  Level Estimated
12:08AM -10.7991 24.7489 168° South  Level Estimated
12:09AM -10.9253 24.7755 168° South  Level Estimated
12:10AM -11.0516 24.8021 168° South  Level Estimated
12:11AM -11.1778 24.8287 168° South  Level Estimated
12:12AM -11.3041 24.8554 168° South  Level Estimated
12:13AM -11.4304 24.8820 168° South  Level Estimated
12:14AM -11.5566 24.9087 168° South  Level Estimated
12:15AM -11.6829 24.9355 168° South  Level Estimated
12:16AM -11.8091 24.9622 168° South  Level Estimated
12:17AM -11.9354 24.9890 168° South  Level Estimated
12:18AM -12.0616 25.0158 168° South  Level Estimated
12:19AM -12.1879 25.0426 168° South  Level Estimated
12:20AM -12.3141 25.0695 168° South  Level Estimated
12:21AM -12.4404 25.0964 168° South  Level Estimated
12:22AM -12.5666 25.1233 168° South  Level Estimated
12:23AM -12.6928 25.1502 168° South  Level Estimated
12:24AM -12.8191 25.1772 168° South  Level Estimated
12:25AM -12.9453 25.2041 168° South  Level Estimated
12:26AM -13.0715 25.2311 168° South  Level Estimated
12:27AM -13.1977 25.2582 168° South  Level Estimated
12:28AM -13.3240 25.2853 168° South  Level Estimated
12:29AM -13.4502 25.3124 168° South  Level Estimated
12:30AM -13.5764 25.3395 168° South  Level Estimated
12:31AM -13.7026 25.3666 168° South  Level Estimated
12:32AM -13.8288 25.3938 168° South  Level Estimated
12:33AM -13.9550 25.4210 168° South  Level Estimated
12:34AM -14.0812 25.4483 168° South  Level Estimated
12:35AM -14.2074 25.4755 168° South  Level Estimated
12:36AM -14.3336 25.5028 168° South  Level Estimated
12:37AM -14.4598 25.5302 168° South  Level Estimated
12:38AM -14.5860 25.5575 168° South  Level Estimated
12:39AM -14.7122 25.5849 168° South  Level Estimated
12:40AM -14.8384 25.6124 168° South  Level Estimated
12:41AM -14.9646 25.6398 168° South  Level Estimated
12:42AM -15.0907 25.6673 168° South  Level Estimated
12:43AM -15.2169 25.6949 168° South  Level Estimated
12:44AM -15.3431 25.7224 168° South  Level Estimated
12:45AM -15.4692 25.7500 168° South  Level Estimated
12:46AM -15.5954 25.7776 168° South  Level Estimated
12:47AM -15.7216 25.8053 168° South  Level Estimated
12:48AM -15.8477 25.8330 168° South  Level Estimated
12:49AM -15.9739 25.8607 168° South  Level Estimated
12:50AM -16.1000 25.8885 168° South  Level Estimated
12:51AM -16.2262 25.9163 168° South  Level Estimated
12:52AM -16.3523 25.9441 168° South  Level Estimated
12:53AM -16.4785 25.9720 168° South  Level Estimated
12:54AM -16.6046 25.9999 168° South  Level Estimated
12:55AM -16.7307 26.0278 168° South  Level Estimated
12:56AM -16.8568 26.0558 168° South  Level Estimated
12:57AM -16.9830 26.0838 168° South  Level Estimated
12:58AM -17.1091 26.1119 168° South  Level Estimated
12:59AM -17.2352 26.1400 168° South  Level Estimated
01:00AM -17.3613 26.1681 168° South  Level Estimated
01:01AM -17.4874 26.1963 168° South  Level Estimated
01:02AM -17.6135 26.2245 168° South  Level Estimated
01:03AM -17.7396 26.2527 168° South  Level Estimated
01:04AM -17.8657 26.2810 168° South  Level Estimated
01:05AM -17.9918 26.3093 168° South  Level Estimated
01:06AM -18.1179 26.3377 168° South  Level Estimated
01:07AM -18.2440 26.3661 168° South  Level Estimated
01:08AM -18.3701 26.3946 168° South  Level Estimated
01:09AM -18.4962 26.4231 168° South  Level Estimated
01:10AM -18.6222 26.4516 168° South  Level Estimated
01:11AM -18.7483 26.4802 168° South  Level Estimated
01:12AM -18.8744 26.5088 168° South  Level Estimated
01:13AM -19.0004 26.5375 168° South  Level Estimated
01:14AM -19.1265 26.5662 168° South  Level Estimated
01:15AM -19.2525 26.5949 168° South  Level Estimated
01:16AM -19.3786 26.6237 168° South  Level Estimated
01:17AM -19.5046 26.6525 168° South  Level Estimated
01:18AM -19.6306 26.6814 168° South  Level Estimated
01:19AM -19.7567 26.7104 168° South  Level Estimated
01:20AM -19.8827 26.7393 168° South  Level Estimated
01:21AM -20.0087 26.7684 168° South  Level Estimated
01:22AM -20.1347 26.7974 168° South  Level Estimated
01:23AM -20.2607 26.8265 168° South  Level Estimated
01:24AM -20.3868 26.8557 168° South  Level Estimated
01:25AM -20.5128 26.8849 168° South  Level Estimated
01:26AM -20.6388 26.9142 168° South  Level Estimated
01:27AM -20.7647 26.9435 168° South  Level Estimated
01:28AM -20.8907 26.9728 168° South  Level Estimated
01:29AM -21.0167 27.0022 168° South  Level Estimated
01:30AM -21.1427 27.0317 168° South  Level Estimated
01:31AM -21.2687 27.0612 168° South  Level Estimated
01:32AM -21.3946 27.0907 168° South  Level Estimated
01:33AM -21.5206 27.1203 168° South  Level Estimated
01:34AM -21.6466 27.1500 168° South  Level Estimated
01:35AM -21.7725 27.1797 168° South  Level Estimated
01:36AM -21.8985 27.2095 168° South  Level Estimated
01:37AM -22.0244 27.2393 168° South  Level Estimated
01:38AM -22.1510 27.2693 168° South  Level Estimated
01:39AM -22.2776 27.2994 168° South  Level Estimated
01:40AM -22.4041 27.3295 168° South  Level Estimated
01:41AM -22.5307 27.3597 168° South  Level Estimated
01:42AM -22.6572 27.3899 168° South  Level Estimated
01:43AM -22.7838 27.4202 168° South  Level Estimated
01:44AM -22.9104 27.4506 168° South  Level Estimated
01:45AM -23.0369 27.4810 168° South  Level Estimated
01:46AM -23.1634 27.5114 168° South  Level Estimated
01:47AM -23.2900 27.5420 167° South  Level Estimated
01:48AM -23.4165 27.5725 167° South  Level Estimated
01:49AM -23.5430 27.6032 167° South  Level Estimated
01:50AM -23.6695 27.6339 167° South  Level Estimated
01:51AM -23.7960 27.6646 167° South  Level Estimated
01:52AM -23.9225 27.6955 167° South  Level Estimated
01:53AM -24.0490 27.7264 167° South  Level Estimated
01:54AM -24.1755 27.7573 167° South  Level Estimated
01:55AM -24.3020 27.7883 167° South  Level Estimated
01:56AM -24.4284 27.8193 167° South  Level Estimated
01:57AM -24.5549 27.8505 167° South  Level Estimated
01:58AM -24.6814 27.8817 167° South  Level Estimated
01:59AM -24.8078 27.9129 167° South  Level Estimated
02:00AM -24.9343 27.9442 167° South  Level Estimated
02:01AM -25.0607 27.9756 167° South  Level Estimated
02:02AM -25.1872 28.0070 167° South  Level Estimated
02:03AM -25.3136 28.0386 167° South  Level Estimated
02:04AM -25.4400 28.0701 167° South  Level Estimated
02:05AM -25.5654 28.1015 167° South  Level Estimated
02:06AM -25.6907 28.1329 167° South  Level Estimated
02:07AM -25.8160 28.1645 167° South  Level Estimated
02:08AM -25.9414 28.1960 167° South  Level Estimated
02:09AM -26.0626 28.2266 167° South  Level Estimated
02:10AM -26.1838 28.2573 347° North  Level Estimated
02:11AM -26.0626 28.2266 167° South  Level Estimated
02:12AM -26.1838 28.2573 347° North  Level Estimated
02:13AM -26.0626 28.2266 167° South  Level Estimated
02:14AM -26.1838 28.2573 347° North  Level Estimated
02:15AM -26.0626 28.2266 167° South  Level Estimated
02:16AM -26.1838 28.2573 347° North  Level Estimated
02:17AM -26.0626 28.2266 167° South  Level Estimated
02:18AM -26.1838 28.2573 347° North  Level Estimated
02:19AM -26.0626 28.2266 167° South  Level Estimated
02:20AM -26.1838 28.2573 347° North  Level Estimated
02:21AM -26.0626 28.2266 167° South  Level Estimated
02:22AM -26.1838 28.2573 347° North  Level Estimated
02:23AM -26.0626 28.2266 167° South  Level Estimated
02:24AM -26.1838 28.2573 347° North  Level Estimated
02:25AM -26.0626 28.2266 167° South  Level Estimated
02:26AM -26.1838 28.2573 347° North  Level Estimated
02:27AM -26.0626 28.2266 167° South  Level Estimated
02:28AM -26.1838 28.2573 347° North  Level Estimated
02:29AM -26.0626 28.2266 167° South  Level Estimated
02:30AM -26.1838 28.2573 347° North  Level Estimated
02:31AM -26.0626 28.2266 167° South  Level Estimated
02:32AM -26.1838 28.2573 347° North  Level Estimated
02:33AM -26.0626 28.2266 167° South  Level Estimated
02:34AM -26.1838 28.2573 347° North  Level Estimated
02:35AM -26.0626 28.2266 167° South  Level Estimated
02:36AM -26.1838 28.2573 347° North  Level Estimated
02:37AM -26.0626 28.2266 167° South  Level Estimated
02:38AM -26.1838 28.2573 347° North  Level Estimated
02:39AM -26.0626 28.2266 167° South  Level Estimated
02:40AM -26.1838 28.2573 167° South  Level Estimated